createdAt,value
2022-11-03T00:02:09.783Z,100568.00
2022-11-03T00:04:37.232Z,100560.00
2022-11-03T00:07:04.677Z,100551.00
2022-11-03T00:09:32.633Z,100541.00
2022-11-03T00:12:00.248Z,100544.00
2022-11-03T00:14:28.059Z,100547.00
2022-11-03T00:16:55.906Z,100555.00
2022-11-03T00:19:23.209Z,100555.00
2022-11-03T00:21:50.636Z,100548.00
2022-11-03T00:24:18.180Z,100542.00
2022-11-03T00:26:45.816Z,100540.00
2022-11-03T00:29:15.208Z,100533.00
2022-11-03T00:31:44.783Z,100522.00
2022-11-03T00:34:13.121Z,100525.00
2022-11-03T00:36:45.459Z,100527.00
2022-11-03T00:39:13.495Z,100523.00
2022-11-03T00:41:41.531Z,100534.00
2022-11-03T00:44:10.829Z,100540.00
2022-11-03T00:46:38.424Z,100533.00
2022-11-03T00:49:06.576Z,100533.00
2022-11-03T00:51:37.019Z,100527.00
2022-11-03T00:54:07.544Z,100520.00
2022-11-03T00:56:44.418Z,100523.00
2022-11-03T00:59:11.858Z,100522.00
2022-11-03T01:01:47.331Z,100519.00
2022-11-03T01:04:35.242Z,100507.00
2022-11-03T01:07:04.341Z,100514.00
2022-11-03T01:09:41.145Z,100517.00
2022-11-03T01:12:11.741Z,100521.00
2022-11-03T01:14:47.850Z,100522.00
2022-11-03T01:17:25.016Z,100519.00
2022-11-03T01:19:53.036Z,100510.00
2022-11-03T01:22:21.944Z,100513.00
2022-11-03T01:24:49.864Z,100513.00
2022-11-03T01:27:20.516Z,100512.00
2022-11-03T01:29:47.896Z,100500.00
2022-11-03T01:32:15.498Z,100505.00
2022-11-03T01:34:42.768Z,100497.00
2022-11-03T01:37:10.244Z,100489.00
2022-11-03T01:39:37.529Z,100491.00
2022-11-03T01:42:05.015Z,100482.00
2022-11-03T01:44:49.179Z,100482.00
2022-11-03T01:47:42.650Z,100477.00
2022-11-03T01:50:18.478Z,100472.00
2022-11-03T01:52:53.054Z,100469.00
2022-11-03T01:55:28.654Z,100476.00
2022-11-03T01:58:07.817Z,100470.00
2022-11-03T02:00:36.636Z,100462.00
2022-11-03T02:03:04.844Z,100467.00
2022-11-03T02:05:32.526Z,100459.00
2022-11-03T02:10:41.489Z,100455.00
2022-11-03T02:13:22.150Z,100445.00
2022-11-03T02:15:53.493Z,100432.00
2022-11-03T02:18:28.463Z,100425.00
2022-11-03T02:21:30.803Z,100430.00
2022-11-03T02:24:49.905Z,100416.00
2022-11-03T02:27:21.717Z,100417.00
2022-11-03T02:29:49.772Z,100414.00
2022-11-03T02:32:26.406Z,100417.00
2022-11-03T02:35:12.773Z,100414.00
2022-11-03T02:37:47.658Z,100413.00
2022-11-03T02:40:34.933Z,100403.00
2022-11-03T02:43:04.732Z,100397.00
2022-11-03T02:45:32.897Z,100388.00
2022-11-03T02:48:03.279Z,100380.00
2022-11-03T02:50:34.251Z,100392.00
2022-11-03T02:53:02.411Z,100392.00
2022-11-03T02:56:00.354Z,100397.00
2022-11-03T02:58:59.636Z,100391.00
2022-11-03T03:01:47.464Z,100392.00
2022-11-03T03:04:40.139Z,100395.00
2022-11-03T03:07:30.800Z,100385.00
2022-11-03T03:10:29.383Z,100388.00
2022-11-03T03:12:59.324Z,100385.00
2022-11-03T03:15:57.270Z,100387.00
2022-11-03T03:18:37.596Z,100386.00
2022-11-03T03:21:26.387Z,100379.00
2022-11-03T03:24:40.581Z,100378.00
2022-11-03T03:27:11.470Z,100379.00
2022-11-03T03:29:56.881Z,100372.00
2022-11-03T03:32:27.285Z,100365.00
2022-11-03T03:34:56.301Z,100361.00
2022-11-03T03:37:26.557Z,100360.00
2022-11-03T03:39:59.926Z,100352.00
2022-11-03T03:42:30.755Z,100354.00
2022-11-03T03:44:59.585Z,100347.00
2022-11-03T03:47:33.039Z,100353.00
2022-11-03T03:50:02.186Z,100355.00
2022-11-03T03:52:30.777Z,100347.00
2022-11-03T03:54:58.256Z,100336.00
2022-11-03T03:57:28.629Z,100333.00
2022-11-03T03:59:56.188Z,100322.00
2022-11-03T04:02:23.426Z,100331.00
2022-11-03T04:04:51.010Z,100322.00
2022-11-03T04:07:42.411Z,100314.00
2022-11-03T04:10:11.812Z,100315.00
2022-11-03T04:13:00.901Z,100316.00
2022-11-03T04:15:47.681Z,100308.00
2022-11-03T04:18:33.935Z,100314.00
2022-11-03T04:21:20.075Z,100301.00
2022-11-03T04:23:47.434Z,100306.00
2022-11-03T04:26:17.622Z,100294.00
2022-11-03T04:28:46.147Z,100289.00
2022-11-03T04:31:15.793Z,100284.00
2022-11-03T04:33:43.986Z,100282.00
2022-11-03T04:36:25.917Z,100282.00
2022-11-03T04:38:53.711Z,100280.00
2022-11-03T04:41:28.232Z,100279.00
2022-11-03T04:43:57.191Z,100265.00
2022-11-03T04:46:29.930Z,100263.00
2022-11-03T04:49:01.229Z,100260.00
2022-11-03T04:51:31.815Z,100254.00
2022-11-03T04:54:16.711Z,100254.00
2022-11-03T04:56:44.209Z,100252.00
2022-11-03T04:59:16.698Z,100247.00
2022-11-03T05:01:45.774Z,100247.00
2022-11-03T05:04:18.546Z,100242.00
2022-11-03T05:06:51.776Z,100242.00
2022-11-03T05:09:27.843Z,100241.00
2022-11-03T05:11:55.389Z,100245.00
2022-11-03T05:14:32.453Z,100240.00
2022-11-03T05:17:02.346Z,100237.00
2022-11-03T05:19:34.631Z,100244.00
2022-11-03T05:22:04.235Z,100238.00
2022-11-03T05:24:33.250Z,100238.00
2022-11-03T05:27:00.941Z,100230.00
2022-11-03T05:29:38.860Z,100229.00
2022-11-03T05:32:22.165Z,100223.00
2022-11-03T05:34:54.672Z,100222.00
2022-11-03T05:37:27.527Z,100226.00
2022-11-03T05:40:10.415Z,100216.00
2022-11-03T05:42:42.602Z,100212.00
2022-11-03T05:45:23.885Z,100218.00
2022-11-03T05:47:55.922Z,100209.00
2022-11-03T05:50:29.799Z,100218.00
2022-11-03T05:53:22.763Z,100210.00
2022-11-03T05:55:50.231Z,100213.00
2022-11-03T05:58:40.382Z,100206.00
2022-11-03T06:01:41.064Z,100210.00
2022-11-03T06:04:29.694Z,100200.00
2022-11-03T06:07:03.926Z,100198.00
2022-11-03T06:09:34.973Z,100206.00
2022-11-03T06:12:06.305Z,100204.00
2022-11-03T06:14:36.756Z,100202.00
2022-11-03T06:17:20.815Z,100201.00
2022-11-03T06:19:49.889Z,100205.00
2022-11-03T06:22:30.292Z,100204.00
2022-11-03T06:25:17.116Z,100204.00
2022-11-03T06:27:44.365Z,100209.00
2022-11-03T06:33:21.620Z,100204.00
2022-11-03T06:35:52.072Z,100205.00
2022-11-03T06:38:27.278Z,100201.00
2022-11-03T06:40:54.789Z,100199.00
2022-11-03T06:43:28.941Z,100205.00
2022-11-03T06:45:59.445Z,100200.00
2022-11-03T06:48:33.420Z,100193.00
2022-11-03T06:51:01.873Z,100208.00
2022-11-03T06:53:33.393Z,100202.00
2022-11-03T06:56:01.275Z,100192.00
2022-11-03T06:58:36.833Z,100207.00
2022-11-03T07:01:34.121Z,100189.00
2022-11-03T07:04:24.177Z,100203.00
2022-11-03T07:06:53.556Z,100193.00
2022-11-03T07:09:26.219Z,100195.00
2022-11-03T07:12:00.081Z,100193.00
2022-11-03T07:14:29.764Z,100193.00
2022-11-03T07:17:15.611Z,100194.00
2022-11-03T07:19:45.970Z,100188.00
2022-11-03T07:22:20.311Z,100185.00
2022-11-03T07:24:50.772Z,100188.00
2022-11-03T07:27:26.873Z,100176.00
2022-11-03T07:30:00.363Z,100179.00
2022-11-03T07:32:34.014Z,100177.00
2022-11-03T07:36:00.355Z,100160.00
2022-11-03T07:38:24.924Z,100161.00
2022-11-03T07:40:57.235Z,100151.00
2022-11-03T07:43:34.991Z,100147.00
2022-11-03T07:46:04.360Z,100147.00
2022-11-03T07:48:52.290Z,100145.00
2022-11-03T07:51:35.019Z,100141.00
2022-11-03T07:54:08.516Z,100144.00
2022-11-03T07:56:45.588Z,100139.00
2022-11-03T07:59:19.747Z,100136.00
2022-11-03T08:01:54.462Z,100127.00
2022-11-03T08:04:26.159Z,100119.00
2022-11-03T08:06:53.939Z,100120.00
2022-11-03T08:09:22.038Z,100115.00
2022-11-03T08:11:51.380Z,100112.00
2022-11-03T08:14:18.992Z,100100.00
2022-11-03T08:16:46.849Z,100098.00
2022-11-03T08:19:14.339Z,100101.00
2022-11-03T08:21:41.676Z,100091.00
2022-11-03T08:24:09.014Z,100094.00
2022-11-03T08:26:36.208Z,100090.00
2022-11-03T08:29:03.690Z,100079.00
2022-11-03T08:31:30.961Z,100075.00
2022-11-03T08:33:58.503Z,100066.00
2022-11-03T08:36:26.016Z,100063.00
2022-11-03T08:38:53.603Z,100058.00
2022-11-03T08:41:21.039Z,100064.00
2022-11-03T08:43:48.400Z,100062.00
2022-11-03T08:46:17.992Z,100046.00
2022-11-03T08:48:47.147Z,100043.00
2022-11-03T08:51:16.391Z,100047.00
2022-11-03T08:53:44.514Z,100047.00
2022-11-03T08:56:15.068Z,100033.00
2022-11-03T08:58:44.486Z,100037.00
2022-11-03T09:01:12.457Z,100037.00
2022-11-03T09:03:41.242Z,100029.00
2022-11-03T09:06:09.585Z,100029.00
2022-11-03T09:11:24.441Z,100015.00
2022-11-03T09:13:51.727Z,100018.00
2022-11-03T09:16:19.148Z,100002.00
2022-11-03T09:18:46.705Z,100014.00
2022-11-03T09:21:15.098Z,100006.00
2022-11-03T09:23:42.604Z,99998.00
2022-11-03T09:26:10.003Z,99995.00
2022-11-03T09:28:37.272Z,99989.00
2022-11-03T09:31:04.718Z,99981.00
2022-11-03T09:33:32.640Z,99973.00
2022-11-03T09:36:01.732Z,99970.00
2022-11-03T09:38:29.465Z,99972.00
2022-11-03T09:40:57.648Z,99965.00
2022-11-03T09:43:25.131Z,99966.00
2022-11-03T09:45:53.828Z,99962.00
2022-11-03T09:48:21.274Z,99969.00
2022-11-03T09:50:53.656Z,99959.00
2022-11-03T09:53:21.858Z,99962.00
2022-11-03T09:55:49.291Z,99965.00
2022-11-03T09:58:18.708Z,99968.00
2022-11-03T10:00:46.529Z,99970.00
2022-11-03T10:03:17.285Z,99969.00
2022-11-03T10:05:46.044Z,99965.00
2022-11-03T10:08:32.668Z,99959.00
2022-11-03T10:11:02.480Z,99960.00
2022-11-03T10:13:34.559Z,99951.00
2022-11-03T10:16:06.997Z,99952.00
2022-11-03T10:18:36.174Z,99955.00
2022-11-03T10:21:26.963Z,99940.00
2022-11-03T10:23:54.376Z,99938.00
2022-11-03T10:26:22.239Z,99944.00
2022-11-03T10:29:06.143Z,99940.00
2022-11-03T10:31:39.715Z,99928.00
2022-11-03T10:34:25.013Z,99927.00
2022-11-03T10:37:25.633Z,99927.00
2022-11-03T10:39:55.457Z,99918.00
2022-11-03T10:42:34.942Z,99908.00
2022-11-03T10:45:29.702Z,99916.00
2022-11-03T10:48:09.726Z,99908.00
2022-11-03T10:50:42.275Z,99891.00
2022-11-03T10:53:18.766Z,99899.00
2022-11-03T10:55:46.838Z,99889.00
2022-11-03T10:58:14.511Z,99870.00
2022-11-03T11:00:43.247Z,99864.00
2022-11-03T11:03:16.468Z,99858.00
2022-11-03T11:05:48.822Z,99866.00
2022-11-03T11:08:23.306Z,99862.00
2022-11-03T11:10:50.889Z,99867.00
2022-11-03T11:13:19.117Z,99858.00
2022-11-03T11:15:55.691Z,99860.00
2022-11-03T11:18:29.267Z,99851.00
2022-11-03T11:21:24.768Z,99865.00
2022-11-03T11:23:54.549Z,99848.00
2022-11-03T11:26:35.394Z,99844.00
2022-11-03T11:29:09.096Z,99840.00
2022-11-03T11:31:43.864Z,99833.00
2022-11-03T11:34:20.290Z,99833.00
2022-11-03T11:37:07.839Z,99828.00
2022-11-03T11:39:44.340Z,99825.00
2022-11-03T11:42:19.556Z,99812.00
2022-11-03T11:44:59.375Z,99792.00
2022-11-03T11:47:49.373Z,99800.00
2022-11-03T11:50:22.287Z,99785.00
2022-11-03T11:53:08.190Z,99780.00
2022-11-03T11:55:43.010Z,99782.00
2022-11-03T11:58:33.438Z,99777.00
2022-11-03T12:01:24.513Z,99770.00
2022-11-03T12:03:55.255Z,99763.00
2022-11-03T12:06:52.107Z,99756.00
2022-11-03T12:09:29.589Z,99749.00
2022-11-03T12:12:03.479Z,99738.00
2022-11-03T12:14:40.893Z,99733.00
2022-11-03T12:17:17.452Z,99721.00
2022-11-03T12:19:53.516Z,99717.00
2022-11-03T12:22:26.989Z,99708.00
2022-11-03T12:25:01.801Z,99705.00
2022-11-03T12:27:29.304Z,99702.00
2022-11-03T12:30:00.221Z,99692.00
2022-11-03T12:32:35.857Z,99697.00
2022-11-03T12:35:06.028Z,99692.00
2022-11-03T12:37:33.645Z,99689.00
2022-11-03T12:40:00.952Z,99677.00
2022-11-03T12:42:28.445Z,99677.00
2022-11-03T12:44:56.207Z,99671.00
2022-11-03T12:47:23.747Z,99663.00
2022-11-03T12:49:51.209Z,99661.00
2022-11-03T12:52:18.672Z,99657.00
2022-11-03T12:54:46.261Z,99643.00
2022-11-03T12:57:14.133Z,99637.00
2022-11-03T12:59:41.919Z,99639.00
2022-11-03T13:02:12.121Z,99641.00
2022-11-03T13:04:39.775Z,99639.00
2022-11-03T13:07:07.202Z,99640.00
2022-11-03T13:09:36.201Z,99633.00
2022-11-03T13:12:22.375Z,99622.00
2022-11-03T13:14:49.683Z,99620.00
2022-11-03T13:17:17.256Z,99615.00
2022-11-03T13:19:44.694Z,99605.00
2022-11-03T13:22:12.165Z,99600.00
2022-11-03T13:24:39.483Z,99584.00
2022-11-03T13:27:06.968Z,99580.00
2022-11-03T13:29:35.855Z,99581.00
2022-11-03T13:32:04.866Z,99573.00
2022-11-03T13:34:32.601Z,99581.00
2022-11-03T13:37:00.166Z,99582.00
2022-11-03T13:39:27.934Z,99575.00
2022-11-03T13:41:55.696Z,99583.00
2022-11-03T13:44:23.129Z,99577.00
2022-11-03T13:46:51.357Z,99570.00
2022-11-03T13:52:06.387Z,99568.00
2022-11-03T14:00:17.091Z,99533.00
2022-11-03T14:05:32.179Z,99535.00
2022-11-03T14:07:59.613Z,99536.00
2022-11-03T14:10:27.206Z,99540.00
2022-11-03T14:12:54.714Z,99545.00
2022-11-03T14:15:22.384Z,99539.00
2022-11-03T14:17:49.719Z,99532.00
2022-11-03T14:20:17.205Z,99523.00
2022-11-03T14:22:44.646Z,99525.00
2022-11-03T14:25:12.388Z,99525.00
2022-11-03T14:27:39.935Z,99525.00
2022-11-03T14:30:08.477Z,99524.00
2022-11-03T14:32:35.946Z,99520.00
2022-11-03T14:35:03.831Z,99501.00
2022-11-03T14:37:31.637Z,99502.00
2022-11-03T14:39:59.334Z,99486.00
2022-11-03T14:42:26.930Z,99477.00
2022-11-03T14:44:55.054Z,99469.00
2022-11-03T14:47:22.592Z,99456.00
2022-11-03T14:49:50.476Z,99454.00
2022-11-03T14:52:18.109Z,99444.00
2022-11-03T14:54:45.778Z,99427.00
2022-11-03T14:57:13.508Z,99421.00
2022-11-03T14:59:41.131Z,99412.00
2022-11-03T15:02:09.360Z,99420.00
2022-11-03T15:04:36.802Z,99407.00
2022-11-03T15:07:04.207Z,99400.00
2022-11-03T15:09:31.464Z,99394.00
2022-11-03T15:11:59.023Z,99394.00
2022-11-03T15:14:26.856Z,99396.00
2022-11-03T15:16:54.303Z,99392.00
2022-11-03T15:19:21.685Z,99385.00
2022-11-03T15:21:49.751Z,99380.00
2022-11-03T15:27:05.100Z,99368.00
2022-11-03T15:29:32.466Z,99351.00
2022-11-03T15:31:59.637Z,99349.00
2022-11-03T15:34:27.080Z,99338.00
2022-11-03T15:36:54.849Z,99343.00
2022-11-03T15:39:22.277Z,99344.00
2022-11-03T15:41:49.574Z,99336.00
2022-11-03T15:44:17.033Z,99338.00
2022-11-03T15:46:46.956Z,99344.00
2022-11-03T15:49:14.339Z,99341.00
2022-11-03T15:51:41.874Z,99345.00
2022-11-03T15:54:09.131Z,99330.00
2022-11-03T15:56:36.782Z,99320.00
2022-11-03T15:59:05.005Z,99320.00
2022-11-03T16:01:32.652Z,99317.00
2022-11-03T16:04:02.560Z,99321.00
2022-11-03T16:09:17.684Z,99311.00
2022-11-03T16:11:46.619Z,99290.00
2022-11-03T16:14:15.223Z,99292.00
2022-11-03T16:16:42.757Z,99295.00
2022-11-03T16:19:10.588Z,99292.00
2022-11-03T16:21:38.688Z,99291.00
2022-11-03T16:24:06.622Z,99285.00
2022-11-03T16:26:34.243Z,99287.00
2022-11-03T16:29:01.863Z,99279.00
2022-11-03T16:31:29.318Z,99287.00
2022-11-03T16:33:56.792Z,99272.00
2022-11-03T16:36:24.288Z,99281.00
2022-11-03T16:38:53.842Z,99268.00
2022-11-03T16:41:21.501Z,99276.00
2022-11-03T16:43:50.027Z,99273.00
2022-11-03T16:46:17.337Z,99279.00
2022-11-03T16:48:44.640Z,99266.00
2022-11-03T16:51:11.861Z,99260.00
2022-11-03T16:53:39.529Z,99263.00
2022-11-03T16:56:07.270Z,99249.00
2022-11-03T16:58:34.788Z,99242.00
2022-11-03T17:01:02.341Z,99238.00
2022-11-03T17:03:30.053Z,99229.00
2022-11-03T17:05:58.186Z,99229.00
2022-11-03T17:08:51.376Z,99234.00
2022-11-03T17:11:13.649Z,99223.00
2022-11-03T17:13:41.026Z,99208.00
2022-11-03T17:16:08.752Z,99207.00
2022-11-03T17:18:36.873Z,99216.00
2022-11-03T17:21:04.871Z,99193.00
2022-11-03T17:23:32.648Z,99190.00
2022-11-03T17:26:02.667Z,99195.00
2022-11-03T17:28:30.400Z,99193.00
2022-11-03T17:30:58.063Z,99185.00
2022-11-03T17:33:25.598Z,99171.00
2022-11-03T17:35:53.416Z,99188.00
2022-11-03T17:38:28.350Z,99179.00
2022-11-03T17:40:55.932Z,99174.00
2022-11-03T17:43:31.565Z,99173.00
2022-11-03T17:45:58.975Z,99169.00
2022-11-03T17:48:26.470Z,99169.00
2022-11-03T17:50:56.649Z,99167.00
2022-11-03T17:53:31.625Z,99163.00
2022-11-03T17:58:47.606Z,99146.00
2022-11-03T18:01:27.634Z,99133.00
2022-11-03T18:03:55.493Z,99125.00
2022-11-03T18:06:23.183Z,99122.00
2022-11-03T18:08:50.979Z,99127.00
2022-11-03T18:11:46.129Z,99124.00
2022-11-03T18:14:14.319Z,99128.00
2022-11-03T18:16:42.080Z,99104.00
2022-11-03T18:19:14.556Z,99096.00
2022-11-03T18:21:43.031Z,99086.00
2022-11-03T18:24:13.775Z,99116.00
2022-11-03T18:26:41.840Z,99104.00
2022-11-03T18:29:15.299Z,99104.00
2022-11-03T18:31:50.956Z,99105.00
2022-11-03T18:34:25.505Z,99100.00
2022-11-03T18:36:53.433Z,99093.00
2022-11-03T18:39:27.527Z,99089.00
2022-11-03T18:41:55.719Z,99089.00
2022-11-03T18:44:29.337Z,99080.00
2022-11-03T18:46:58.409Z,99087.00
2022-11-03T18:49:27.659Z,99090.00
2022-11-03T18:52:03.389Z,99070.00
2022-11-03T18:54:33.584Z,99061.00
2022-11-03T18:57:01.750Z,99070.00
2022-11-03T18:59:37.733Z,99064.00
2022-11-03T19:02:23.937Z,99060.00
2022-11-03T19:04:52.324Z,99051.00
2022-11-03T19:07:29.261Z,99050.00
2022-11-03T19:09:56.935Z,99049.00
2022-11-03T19:12:24.710Z,99042.00
2022-11-03T19:14:52.223Z,99036.00
2022-11-03T19:17:23.819Z,99035.00
2022-11-03T19:19:54.459Z,99015.00
2022-11-03T19:22:23.819Z,99021.00
2022-11-03T19:24:51.476Z,99017.00
2022-11-03T19:27:28.107Z,99023.00
2022-11-03T19:29:57.777Z,99011.00
2022-11-03T19:32:30.583Z,99011.00
2022-11-03T19:35:02.645Z,99006.00
2022-11-03T19:37:35.394Z,99011.00
2022-11-03T19:40:09.189Z,99009.00
2022-11-03T19:42:37.266Z,98985.00
2022-11-03T19:45:24.630Z,98993.00
2022-11-03T19:50:50.531Z,98978.00
2022-11-03T19:53:28.174Z,98976.00
2022-11-03T19:55:56.878Z,98968.00
2022-11-03T19:58:28.063Z,98975.00
2022-11-03T20:00:56.672Z,98967.00
2022-11-03T20:03:25.514Z,98963.00
2022-11-03T20:05:56.820Z,98953.00
2022-11-03T20:08:30.030Z,98954.00
2022-11-03T20:10:57.492Z,98949.00
2022-11-03T20:13:37.988Z,98941.00
2022-11-03T20:16:16.065Z,98941.00
2022-11-03T20:18:44.119Z,98947.00
2022-11-03T20:21:20.390Z,98948.00
2022-11-03T20:23:49.898Z,98939.00
2022-11-03T20:26:22.970Z,98939.00
2022-11-03T20:28:51.443Z,98946.00
2022-11-03T20:31:19.604Z,98938.00
2022-11-03T20:33:47.262Z,98936.00
2022-11-03T20:36:18.471Z,98923.00
2022-11-03T20:38:59.260Z,98922.00
2022-11-03T20:41:33.971Z,98921.00
2022-11-03T20:44:01.485Z,98913.00
2022-11-03T20:46:35.951Z,98907.00
2022-11-03T20:49:03.946Z,98891.00
2022-11-03T20:51:47.299Z,98901.00
2022-11-03T20:54:20.588Z,98898.00
2022-11-03T20:56:48.705Z,98896.00
2022-11-03T20:59:18.106Z,98894.00
2022-11-03T21:01:46.038Z,98896.00
2022-11-03T21:04:15.823Z,98900.00
2022-11-03T21:06:44.314Z,98900.00
2022-11-03T21:09:14.778Z,98904.00
2022-11-03T21:11:43.747Z,98910.00
2022-11-03T21:14:18.720Z,98915.00
2022-11-03T21:17:04.723Z,98921.00
2022-11-03T21:19:42.541Z,98921.00
2022-11-03T21:25:17.614Z,98919.00
2022-11-03T21:27:45.876Z,98923.00
2022-11-03T21:30:15.704Z,98920.00
2022-11-03T21:32:43.835Z,98911.00
2022-11-03T21:35:18.170Z,98911.00
2022-11-03T21:37:45.717Z,98913.00
2022-11-03T21:40:13.454Z,98910.00
2022-11-03T21:42:59.689Z,98915.00
2022-11-03T21:45:27.213Z,98916.00
2022-11-03T21:48:14.747Z,98915.00
2022-11-03T21:50:45.186Z,98916.00
2022-11-03T21:53:12.980Z,98913.00
2022-11-03T21:55:40.931Z,98920.00
2022-11-03T21:58:08.741Z,98918.00
2022-11-03T22:00:36.411Z,98910.00
2022-11-03T22:03:04.082Z,98925.00
2022-11-03T22:05:31.870Z,98921.00
2022-11-03T22:07:59.341Z,98923.00
2022-11-03T22:10:26.885Z,98917.00
2022-11-03T22:12:54.450Z,98911.00
2022-11-03T22:15:40.792Z,98925.00
2022-11-03T22:18:08.720Z,98917.00
2022-11-03T22:20:58.021Z,98930.00
2022-11-03T22:23:44.386Z,98937.00
2022-11-03T22:26:35.643Z,98931.00
2022-11-03T22:29:23.199Z,98932.00
2022-11-03T22:31:50.734Z,98925.00
2022-11-03T22:34:36.483Z,98921.00
2022-11-03T22:37:03.905Z,98918.00
2022-11-03T22:39:50.060Z,98910.00
2022-11-03T22:42:36.044Z,98903.00
2022-11-03T22:45:23.432Z,98897.00
2022-11-03T22:47:57.869Z,98893.00
2022-11-03T22:50:25.507Z,98892.00
2022-11-03T22:52:53.094Z,98885.00
2022-11-03T22:55:20.721Z,98874.00
2022-11-03T22:57:48.206Z,98882.00
2022-11-03T23:00:16.592Z,98878.00
2022-11-03T23:02:44.428Z,98863.00
2022-11-03T23:05:11.854Z,98871.00
2022-11-03T23:07:41.890Z,98863.00
2022-11-03T23:10:10.164Z,98860.00
2022-11-03T23:12:37.610Z,98847.00
2022-11-03T23:15:24.113Z,98849.00
2022-11-03T23:18:10.155Z,98848.00
2022-11-03T23:20:57.419Z,98835.00
2022-11-03T23:23:43.614Z,98824.00
2022-11-03T23:26:11.383Z,98825.00
2022-11-03T23:28:39.079Z,98822.00
2022-11-03T23:31:06.975Z,98826.00
2022-11-03T23:33:35.775Z,98825.00
2022-11-03T23:36:14.286Z,98828.00
2022-11-03T23:38:43.036Z,98831.00
2022-11-03T23:41:17.175Z,98826.00
2022-11-03T23:43:46.161Z,98826.00
2022-11-03T23:46:36.920Z,98817.00
2022-11-03T23:49:05.184Z,98819.00
2022-11-03T23:51:34.776Z,98825.00
2022-11-03T23:54:04.272Z,98822.00
2022-11-03T23:56:56.037Z,98827.00
2022-11-03T23:59:24.778Z,98823.00
